Time;durP1;ratioP1;P1;durP2;ratioP2;P2;SDS_P1;SDS_P2;PMS_P1;PMS_P2;Temp;Humidity;BMP_temperature;BMP_pressure;BME280_temperature;BME280_humidity;BME280_pressure;Samples;Min_cycle;Max_cycle;Signal;HPM_P1;HPM_P2
2021/04/01 00:00:31;;;;;;;;;;;;;;;10.26;72.26;99966.34;5075830;28;20366;-70
2021/04/01 00:02:59;;;;;;;;;;;;;;;10.21;72.64;99962.94;5075843;28;19925;-70
2021/04/01 00:05:28;;;;;;;;;;;;;;;10.17;72.99;99960.34;5075750;28;20282;-70
2021/04/01 00:07:56;;;;;;;;;;;;;;;10.14;72.61;99958.66;5075662;28;20271;-70
2021/04/01 00:10:28;;;;;;;;;;;;;;;10.11;73.02;99958.59;5075674;28;19924;-70
2021/04/01 00:13:02;;;;;;;;;;;;;;;10.08;73.08;99956.00;5075675;28;19925;-70
2021/04/01 00:15:31;;;;;;;;;;;;;;;10.03;72.51;99957.69;5075567;28;19960;-70
2021/04/01 00:17:58;;;;;;;;;;;;;;;10.02;73.00;99956.00;5075386;28;19925;-70
2021/04/01 00:20:28;;;;;;;;;;;;;;;9.96;72.56;99955.94;5075425;28;19947;-70
2021/04/01 00:22:56;;;;;;;;;;;;;;;9.89;73.53;99949.09;5075679;28;19924;-70
2021/04/01 00:25:23;;;;;;;;;;;;;;;9.85;72.73;99942.28;5075114;28;19959;-70
2021/04/01 00:27:52;;;;;;;;;;;;;;;9.81;73.43;99945.66;5075601;28;19970;-70
2021/04/01 00:30:22;;;;;;;;;;;;;;;9.78;72.92;99945.63;5075575;28;19924;-70
2021/04/01 00:32:50;;;;;;;;;;;;;;;9.77;73.09;99943.91;5075174;28;19924;-70
2021/04/01 00:35:17;;;;;;;;;;;;;;;9.73;72.87;99937.09;5075464;28;19932;-70
2021/04/01 00:37:45;;;;;;;;;;;;;;;9.70;73.01;99940.47;5075586;28;19925;-70
2021/04/01 00:40:13;;;;;;;;;;;;;;;9.67;73.34;99937.06;5075036;28;19931;-70
2021/04/01 00:42:41;;;;;;;;;;;;;;;9.57;73.42;99935.31;5074953;28;20011;-70
2021/04/01 00:45:11;;;;;;;;;;;;;;;9.53;73.21;99931.00;5074930;28;20290;-70
2021/04/01 00:47:39;;;;;;;;;;;;;;;9.53;73.68;99938.66;5073962;28;19928;-70
2021/04/01 00:50:08;;;;;;;;;;;;;;;9.53;73.28;99931.00;5074800;28;19924;-70
2021/04/01 00:52:36;;;;;;;;;;;;;;;9.38;73.40;99930.03;5074784;28;20386;-70
2021/04/01 00:55:06;;;;;;;;;;;;;;;9.36;74.01;99926.63;5074774;28;19925;-70
2021/04/01 00:57:36;;;;;;;;;;;;;;;9.39;73.91;99921.56;5075339;28;19954;-70
2021/04/01 01:00:05;;;;;;;;;;;;;;;9.44;73.70;99919.91;5074654;28;19924;-69
2021/04/01 01:02:34;;;;;;;;;;;;;;;9.50;73.97;99923.34;5074613;28;20019;-70
2021/04/01 01:05:02;;;;;;;;;;;;;;;9.54;74.82;99925.06;5074568;28;20389;-70
2021/04/01 01:07:29;;;;;;;;;;;;;;;9.60;73.73;99917.50;5074505;28;19932;-70
2021/04/01 01:09:57;;;;;;;;;;;;;;;9.62;74.38;99913.25;5074517;28;19936;-70
2021/04/01 01:12:25;;;;;;;;;;;;;;;9.60;74.39;99907.31;5074440;28;19928;-70
2021/04/01 01:14:53;;;;;;;;;;;;;;;9.54;73.92;99910.66;5074440;28;20051;-70
2021/04/01 01:17:20;;;;;;;;;;;;;;;9.51;73.89;99905.53;5074326;28;19960;-70
2021/04/01 01:19:51;;;;;;;;;;;;;;;9.42;74.20;99901.22;5074363;28;20369;-69
2021/04/01 01:22:19;;;;;;;;;;;;;;;9.29;74.32;99907.06;5074384;28;19925;-70
2021/04/01 01:24:48;;;;;;;;;;;;;;;9.22;73.81;99897.66;5074056;28;19928;-70
2021/04/01 01:27:16;;;;;;;;;;;;;;;9.22;74.59;99902.75;5075180;28;20407;-70
2021/04/01 01:29:47;;;;;;;;;;;;;;;9.20;74.71;99898.50;5074259;28;19924;-70
2021/04/01 01:32:16;;;;;;;;;;;;;;;9.18;74.15;99890.00;5073345;28;19925;-70
2021/04/01 01:34:44;;;;;;;;;;;;;;;9.16;74.60;99890.00;5074110;28;20026;-70
2021/04/01 01:37:12;;;;;;;;;;;;;;;9.08;73.79;99883.97;5074030;28;20039;-69
2021/04/01 01:39:39;;;;;;;;;;;;;;;9.01;74.40;99889.84;5074120;28;19924;-70
2021/04/01 01:42:08;;;;;;;;;;;;;;;8.97;74.36;99884.72;5074112;28;19971;-70
2021/04/01 01:44:36;;;;;;;;;;;;;;;8.96;74.69;99878.78;5073992;28;19930;-70
2021/04/01 01:47:04;;;;;;;;;;;;;;;8.90;74.64;99880.41;5074312;28;20002;-70
2021/04/01 01:49:39;;;;;;;;;;;;;;;8.90;75.09;99873.63;5074002;28;19925;-70
2021/04/01 01:52:07;;;;;;;;;;;;;;;8.95;74.83;99869.41;5074011;28;19929;-70
2021/04/01 01:54:34;;;;;;;;;;;;;;;8.96;74.78;99866.03;5074200;28;20462;-70
2021/04/01 01:57:02;;;;;;;;;;;;;;;8.99;74.79;99862.69;5074139;28;19925;-69
2021/04/01 01:59:31;;;;;;;;;;;;;;;9.03;75.38;99862.72;5072680;28;19924;-70
2021/04/01 02:01:59;;;;;;;;;;;;;;;9.10;75.46;99861.91;5073841;28;20379;-70
2021/04/01 02:04:26;;;;;;;;;;;;;;;9.15;75.47;99862.81;5073755;28;19958;-70
2021/04/01 02:06:58;;;;;;;;;;;;;;;9.14;75.19;99863.63;5078002;28;20358;-70
2021/04/01 02:09:26;;;;;;;;;;;;;;;9.06;74.87;99857.66;5078277;28;19928;-70
2021/04/01 02:11:54;;;;;;;;;;;;;;;8.99;74.47;99863.53;5077889;28;19978;-70
2021/04/01 02:14:22;;;;;;;;;;;;;;;8.90;74.83;99858.34;5077860;28;19924;-69
2021/04/01 02:16:58;;;;;;;;;;;;;;;8.86;74.00;99850.66;5078139;28;20019;-70
2021/04/01 02:19:25;;;;;;;;;;;;;;;8.80;74.61;99854.03;5078055;28;19925;-70
2021/04/01 02:21:53;;;;;;;;;;;;;;;8.79;74.64;99849.78;5077665;28;19968;-70
2021/04/01 02:24:21;;;;;;;;;;;;;;;8.78;74.52;99853.19;5077625;28;19932;-70
2021/04/01 02:26:48;;;;;;;;;;;;;;;8.82;74.41;99854.91;5077645;28;20286;-70
2021/04/01 02:29:16;;;;;;;;;;;;;;;8.86;75.02;99846.44;5077605;28;19955;-70
2021/04/01 02:31:44;;;;;;;;;;;;;;;8.89;74.56;99850.69;5077523;28;19924;-70
2021/04/01 02:34:13;;;;;;;;;;;;;;;8.84;74.61;99848.13;5077708;28;19975;-70
2021/04/01 02:36:41;;;;;;;;;;;;;;;8.80;75.17;99841.31;5077327;28;19946;-70
2021/04/01 02:39:08;;;;;;;;;;;;;;;8.80;74.37;99850.63;5077316;28;20022;-70
2021/04/01 02:41:36;;;;;;;;;;;;;;;8.78;74.92;99848.09;5077218;28;19935;-70
2021/04/01 02:44:04;;;;;;;;;;;;;;;8.77;75.07;99848.91;5077278;28;19974;-70
2021/04/01 02:46:32;;;;;;;;;;;;;;;8.78;75.46;99837.91;5077144;28;19986;-70
2021/04/01 02:49:00;;;;;;;;;;;;;;;8.72;74.72;99843.78;5077190;28;19924;-70
2021/04/01 02:51:28;;;;;;;;;;;;;;;8.66;74.39;99842.88;5076210;28;19978;-70
2021/04/01 02:53:56;;;;;;;;;;;;;;;8.63;74.57;99838.63;5077321;28;19957;-70
2021/04/01 02:56:24;;;;;;;;;;;;;;;8.59;74.97;99841.94;5076773;28;20272;-70
2021/04/01 02:58:52;;;;;;;;;;;;;;;8.57;74.84;99837.69;5077089;28;20388;-70
2021/04/01 03:01:21;;;;;;;;;;;;;;;8.53;74.80;99831.72;5077137;28;20035;-70
2021/04/01 03:03:52;;;;;;;;;;;;;;;8.53;75.39;99825.78;5077063;28;20033;-70
2021/04/01 03:06:21;;;;;;;;;;;;;;;8.53;75.02;99831.72;5076617;28;19931;-70
2021/04/01 03:08:49;;;;;;;;;;;;;;;8.48;74.94;99828.28;5076854;28;19925;-70
2021/04/01 03:11:17;;;;;;;;;;;;;;;8.37;75.29;99829.03;5076551;28;19960;-70
2021/04/01 03:13:45;;;;;;;;;;;;;;;8.36;74.71;99827.28;5076550;28;19924;-70
2021/04/01 03:16:13;;;;;;;;;;;;;;;8.32;74.73;99817.94;5076271;28;19994;-70
2021/04/01 03:18:40;;;;;;;;;;;;;;;8.37;75.06;99816.31;5076342;28;19974;-70
2021/04/01 03:21:08;;;;;;;;;;;;;;;8.30;75.23;99828.06;5076755;28;20020;-70
2021/04/01 03:23:36;;;;;;;;;;;;;;;8.26;75.00;99818.72;5076699;28;20033;-70
2021/04/01 03:26:04;;;;;;;;;;;;;;;8.23;75.43;99822.91;5076037;28;19964;-70
2021/04/01 03:28:32;;;;;;;;;;;;;;;8.19;75.02;99823.69;5076272;28;19924;-70
2021/04/01 03:31:01;;;;;;;;;;;;;;;8.13;75.46;99818.56;5076557;28;20021;-70
2021/04/01 03:33:28;;;;;;;;;;;;;;;8.13;75.68;99817.69;5076257;28;20451;-70
2021/04/01 03:35:56;;;;;;;;;;;;;;;8.11;76.20;99816.81;5076069;28;19932;-70
2021/04/01 03:38:25;;;;;;;;;;;;;;;8.06;75.90;99815.91;5076230;28;19924;-70
2021/04/01 03:40:54;;;;;;;;;;;;;;;8.01;76.07;99814.19;5076228;28;19924;-70
2021/04/01 03:43:24;;;;;;;;;;;;;;;8.05;76.27;99816.78;5076531;28;19979;-70
2021/04/01 03:45:53;;;;;;;;;;;;;;;8.04;76.45;99820.13;5076094;28;19924;-70
2021/04/01 03:48:20;;;;;;;;;;;;;;;8.06;76.31;99813.38;5076127;28;20383;-70
2021/04/01 03:50:49;;;;;;;;;;;;;;;8.08;76.78;99816.81;5076045;28;20291;-70
2021/04/01 03:53:17;;;;;;;;;;;;;;;8.11;76.49;99805.81;5076295;28;19932;-70
2021/04/01 03:55:45;;;;;;;;;;;;;;;8.16;77.15;99804.16;5076014;28;19925;-70
2021/04/01 04:01:01;;;;;;;;;;;;;;;8.25;76.29;99801.75;5075923;28;19925;-70
2021/04/01 04:03:42;;;;;;;;;;;;;;;8.30;76.42;99801.81;5076625;28;19951;-70
2021/04/01 04:06:22;;;;;;;;;;;;;;;8.31;76.71;99804.38;5075751;28;19924;-70
2021/04/01 04:09:03;;;;;;;;;;;;;;;8.32;76.07;99801.00;5075752;28;19931;-70
2021/04/01 04:11:34;;;;;;;;;;;;;;;8.35;76.93;99805.28;5075754;28;19924;-70
2021/04/01 04:14:08;;;;;;;;;;;;;;;8.35;76.44;99810.34;5075690;28;20019;-70
2021/04/01 04:16:36;;;;;;;;;;;;;;;8.38;76.44;99805.28;5075796;28;19924;-70
2021/04/01 04:19:05;;;;;;;;;;;;;;;8.39;76.25;99800.22;5075567;28;19931;-70
2021/04/01 04:21:32;;;;;;;;;;;;;;;8.36;76.22;99801.88;5075446;28;20405;-70
2021/04/01 04:24:02;;;;;;;;;;;;;;;8.33;75.94;99804.38;5074498;28;20021;-70
2021/04/01 04:26:30;;;;;;;;;;;;;;;8.27;76.43;99799.25;5075459;28;20022;-71
2021/04/01 04:28:59;;;;;;;;;;;;;;;8.25;75.82;99796.66;5075029;28;19970;-70
2021/04/01 04:31:27;;;;;;;;;;;;;;;8.20;76.54;99799.97;5075243;28;20371;-70
2021/04/01 04:33:56;;;;;;;;;;;;;;;8.17;76.17;99802.47;5075131;28;19925;-70
2021/04/01 04:36:23;;;;;;;;;;;;;;;8.19;76.81;99793.19;5075092;28;19939;-70
2021/04/01 04:38:51;;;;;;;;;;;;;;;8.16;76.63;99798.25;5074970;28;19924;-70
2021/04/01 04:41:19;;;;;;;;;;;;;;;8.09;76.52;99788.00;5075355;28;19959;-70
2021/04/01 04:43:46;;;;;;;;;;;;;;;8.07;76.70;99787.13;5075014;28;19978;-70
2021/04/01 04:46:14;;;;;;;;;;;;;;;8.13;76.44;99779.56;5074946;28;19924;-70
2021/04/01 04:48:42;;;;;;;;;;;;;;;8.19;76.84;99777.94;5074834;28;20447;-70
2021/04/01 04:51:11;;;;;;;;;;;;;;;8.25;76.85;99783.09;5074860;28;20403;-71
2021/04/01 04:53:39;;;;;;;;;;;;;;;8.29;76.81;99792.47;5074990;28;19931;-70
2021/04/01 04:56:11;;;;;;;;;;;;;;;8.31;76.79;99793.34;5074810;28;20337;-70
2021/04/01 04:58:42;;;;;;;;;;;;;;;8.42;76.93;99786.69;5074913;28;20386;-70
2021/04/01 05:01:13;;;;;;;;;;;;;;;8.48;77.09;99779.09;5074989;28;19924;-70
2021/04/01 05:08:58;;;;;;;;;;;;;;;8.79;77.41;99781.06;5074563;28;20370;-70
2021/04/01 05:11:26;;;;;;;;;;;;;;;8.88;77.25;99785.38;5074515;28;20333;-70
2021/04/01 05:13:53;;;;;;;;;;;;;;;9.00;77.11;99775.31;5074459;28;20294;-71
2021/04/01 05:16:21;;;;;;;;;;;;;;;9.09;77.07;99776.22;5074627;28;20008;-70
2021/04/01 05:18:49;;;;;;;;;;;;;;;9.18;77.00;99777.97;5074240;28;20324;-71
2021/04/01 05:21:18;;;;;;;;;;;;;;;9.30;76.52;99778.88;5074331;28;19974;-70
2021/04/01 05:23:48;;;;;;;;;;;;;;;9.40;76.36;99783.19;5074376;28;19956;-70
2021/04/01 05:28:58;;;;;;;;;;;;;;;9.58;76.78;99774.78;5074244;28;19925;-71
2021/04/01 05:31:31;;;;;;;;;;;;;;;9.63;76.30;99777.34;5074605;28;20035;-71
2021/04/01 05:33:59;;;;;;;;;;;;;;;9.69;76.04;99777.38;5074262;28;19978;-70
2021/04/01 05:36:27;;;;;;;;;;;;;;;9.75;76.57;99768.06;5074109;28;20298;-70
2021/04/01 05:38:58;;;;;;;;;;;;;;;9.81;76.09;99772.34;5073755;28;19964;-70
2021/04/01 05:41:28;;;;;;;;;;;;;;;9.88;75.93;99768.97;5073626;28;19963;-70
2021/04/01 05:44:04;;;;;;;;;;;;;;;9.97;76.43;99774.09;5074105;28;19932;-70
2021/04/01 05:46:37;;;;;;;;;;;;;;;10.06;76.03;99771.56;5074380;28;19924;-70
2021/04/01 05:49:20;;;;;;;;;;;;;;;10.17;75.93;99767.38;5073952;28;20298;-70
2021/04/01 06:02:48;;;;;;;;;;;;;;;11.21;74.51;99753.75;5074236;28;19947;-70
2021/04/01 06:05:21;;;;;;;;;;;;;;;11.36;74.42;99758.84;5073020;28;19931;-70
2021/04/01 06:07:53;;;;;;;;;;;;;;;11.49;73.71;99760.50;5072611;28;19924;-70
2021/04/01 06:10:22;;;;;;;;;;;;;;;11.67;73.72;99750.19;5073722;28;20382;-70
2021/04/01 06:12:50;;;;;;;;;;;;;;;11.84;73.29;99753.56;5073732;28;19924;-70
2021/04/01 06:15:18;;;;;;;;;;;;;;;12.01;72.67;99751.78;5073679;28;19932;-70
2021/04/01 06:17:47;;;;;;;;;;;;;;;12.17;72.41;99760.22;5073647;28;19924;-70
2021/04/01 06:20:15;;;;;;;;;;;;;;;12.32;72.00;99752.44;5072457;28;20286;-70
2021/04/01 06:22:43;;;;;;;;;;;;;;;12.41;71.55;99746.41;5073544;28;20431;-70
2021/04/01 06:25:13;;;;;;;;;;;;;;;12.42;71.50;99750.66;5072198;28;19928;-70
2021/04/01 06:27:49;;;;;;;;;;;;;;;12.47;70.77;99751.50;5074268;28;19978;-70
2021/04/01 06:30:21;;;;;;;;;;;;;;;12.47;71.11;99749.78;5073698;28;20023;-70
2021/04/01 06:32:58;;;;;;;;;;;;;;;12.53;71.05;99743.75;5073597;28;19924;-70
2021/04/01 06:35:30;;;;;;;;;;;;;;;12.64;70.79;99745.34;5073326;28;19928;-70
2021/04/01 06:40:38;;;;;;;;;;;;;;;12.83;70.67;99746.09;5073494;28;19972;-70
2021/04/01 06:43:10;;;;;;;;;;;;;;;12.94;70.42;99743.41;5073485;28;19960;-70
2021/04/01 06:45:38;;;;;;;;;;;;;;;12.99;70.25;99737.38;5073456;28;20401;-70
2021/04/01 06:48:09;;;;;;;;;;;;;;;13.05;70.08;99747.56;5073450;28;19924;-70
2021/04/01 06:50:38;;;;;;;;;;;;;;;13.14;70.12;99742.41;5073488;28;19936;-70
2021/04/01 06:53:08;;;;;;;;;;;;;;;13.26;70.08;99734.59;5077115;28;19932;-70
2021/04/01 06:56:08;;;;;;;;;;;;;;;13.46;69.97;99729.22;5075686;28;20388;-70
2021/04/01 06:58:42;;;;;;;;;;;;;;;13.69;69.74;99728.94;5077229;28;19924;-70
2021/04/01 07:01:27;;;;;;;;;;;;;;;13.87;69.30;99726.13;5077006;28;20302;-70
2021/04/01 07:03:58;;;;;;;;;;;;;;;14.04;68.64;99721.63;5077334;28;19924;-71
2021/04/01 07:06:27;;;;;;;;;;;;;;;14.16;68.40;99718.88;5077113;28;19925;-71
2021/04/01 07:08:58;;;;;;;;;;;;;;;14.28;67.84;99713.56;5076851;28;19932;-71
2021/04/01 07:11:30;;;;;;;;;;;;;;;14.49;68.05;99718.38;5076818;28;19931;-71
2021/04/01 07:14:03;;;;;;;;;;;;;;;14.65;67.30;99712.16;5077028;28;20027;-71
2021/04/01 07:16:43;;;;;;;;;;;;;;;14.76;67.07;99712.81;5076849;28;19928;-70
2021/04/01 07:19:23;;;;;;;;;;;;;;;14.92;66.92;99709.97;5076625;28;19925;-71
2021/04/01 07:48:42;;;;;;;;;;;;;;;16.63;62.76;99681.41;5075345;28;19967;-70
2021/04/01 07:51:12;;;;;;;;;;;;;;;16.80;61.87;99674.09;5076058;28;19931;-71
2021/04/01 07:53:42;;;;;;;;;;;;;;;16.99;61.63;99665.00;5076324;28;19924;-71
2021/04/01 07:56:17;;;;;;;;;;;;;;;17.12;61.60;99666.38;5075010;28;19924;-70
2021/04/01 07:59:01;;;;;;;;;;;;;;;17.24;61.69;99666.03;5074939;28;20027;-71
2021/04/01 08:04:09;;;;;;;;;;;;;;;17.41;61.63;99653.50;5074956;28;20354;-71
2021/04/01 08:06:38;;;;;;;;;;;;;;;17.56;61.32;99651.41;5075703;28;20303;-71
2021/04/01 08:09:08;;;;;;;;;;;;;;;17.71;61.23;99650.91;5075785;28;20331;-71
2021/04/01 08:11:38;;;;;;;;;;;;;;;17.78;60.88;99655.84;5075937;28;19924;-71
2021/04/01 08:14:10;;;;;;;;;;;;;;;17.80;59.86;99650.66;5076280;28;19924;-71
2021/04/01 08:16:47;;;;;;;;;;;;;;;17.82;59.52;99651.47;5074433;28;19925;-71
2021/04/01 08:19:17;;;;;;;;;;;;;;;18.01;59.57;99644.84;5075496;28;19925;-71
2021/04/01 08:22:04;;;;;;;;;;;;;;;18.22;59.08;99651.91;5075533;28;20301;-70
2021/04/01 08:24:52;;;;;;;;;;;;;;;18.46;59.03;99651.13;5074998;28;19925;-71
2021/04/01 08:27:50;;;;;;;;;;;;;;;18.64;58.34;99645.31;5075350;28;19931;-71
2021/04/01 08:33:52;;;;;;;;;;;;;;;18.78;57.36;99644.03;5075218;28;20380;-71
2021/04/01 08:36:43;;;;;;;;;;;;;;;18.87;56.87;99634.22;5075171;28;19974;-70
2021/04/01 08:39:35;;;;;;;;;;;;;;;18.87;56.42;99639.38;5075376;28;19925;-70
2021/04/01 08:42:33;;;;;;;;;;;;;;;18.98;56.79;99636.44;5075079;28;20301;-70
2021/04/01 08:45:32;;;;;;;;;;;;;;;19.04;55.95;99631.03;5074959;28;19970;-71
2021/04/01 08:48:27;;;;;;;;;;;;;;;19.08;55.78;99622.25;5057431;28;19925;-70
2021/04/01 08:51:11;;;;;;;;;;;;;;;19.15;56.08;99610.75;5074921;28;20344;-71
2021/04/01 08:53:54;;;;;;;;;;;;;;;19.17;55.45;99609.00;5074863;28;19932;-70
2021/04/01 08:56:30;;;;;;;;;;;;;;;19.28;55.89;99604.25;5075124;28;19974;-71
2021/04/01 08:59:04;;;;;;;;;;;;;;;19.31;55.38;99609.31;5074726;28;19974;-71
2021/04/01 09:01:32;;;;;;;;;;;;;;;19.31;55.03;99604.16;5074937;28;19960;-71
2021/04/01 09:04:00;;;;;;;;;;;;;;;19.41;55.10;99600.34;5074378;28;19924;-70
2021/04/01 09:06:31;;;;;;;;;;;;;;;19.57;55.19;99610.94;5074590;28;19973;-71
2021/04/01 09:09:04;;;;;;;;;;;;;;;19.68;54.67;99601.84;5074568;28;19925;-71
2021/04/01 09:11:44;;;;;;;;;;;;;;;19.84;54.81;99610.69;5074532;28;20022;-70
2021/04/01 09:14:21;;;;;;;;;;;;;;;20.02;54.71;99609.13;5074316;28;19925;-70
2021/04/01 09:17:01;;;;;;;;;;;;;;;20.09;54.04;99605.41;5074780;28;19993;-71
2021/04/01 09:19:29;;;;;;;;;;;;;;;20.08;53.40;99597.69;5074310;28;19928;-70
2021/04/01 09:22:01;;;;;;;;;;;;;;;20.06;53.44;99600.31;5074438;28;20026;-71
2021/04/01 09:24:30;;;;;;;;;;;;;;;20.02;53.09;99604.81;5074284;28;20397;-71
2021/04/01 09:26:58;;;;;;;;;;;;;;;20.08;53.42;99598.53;5074005;28;19929;-70
2021/04/01 09:29:26;;;;;;;;;;;;;;;20.18;53.66;99599.84;5074586;28;19994;-71
2021/04/01 09:31:55;;;;;;;;;;;;;;;20.30;53.56;99593.34;5074428;28;19924;-71
2021/04/01 09:34:24;;;;;;;;;;;;;;;20.37;53.22;99584.41;5074179;28;19924;-71
2021/04/01 09:36:53;;;;;;;;;;;;;;;20.41;53.09;99585.97;5074027;28;19932;-70
2021/04/01 09:39:32;;;;;;;;;;;;;;;20.40;52.84;99579.06;5074031;28;19938;-71
2021/04/01 09:42:08;;;;;;;;;;;;;;;20.50;52.74;99575.19;5074509;28;19963;-71
2021/04/01 09:44:36;;;;;;;;;;;;;;;20.77;53.09;99573.16;5074266;28;19925;-71
2021/04/01 09:47:09;;;;;;;;;;;;;;;20.96;52.51;99568.84;5074377;28;19924;-71
2021/04/01 09:49:45;;;;;;;;;;;;;;;21.06;51.70;99576.19;5074003;28;20015;-70
2021/04/01 09:52:13;;;;;;;;;;;;;;;21.06;51.14;99559.78;5073965;28;19925;-71
2021/04/01 09:54:45;;;;;;;;;;;;;;;21.16;51.38;99564.44;5073895;28;19924;-71
2021/04/01 09:57:15;;;;;;;;;;;;;;;21.17;51.14;99552.31;5073920;28;19978;-71
2021/04/01 09:59:48;;;;;;;;;;;;;;;21.29;51.50;99552.59;5074022;28;19925;-71
2021/04/01 10:02:24;;;;;;;;;;;;;;;21.51;51.06;99549.00;5072968;28;19925;-71
2021/04/01 10:04:56;;;;;;;;;;;;;;;21.65;50.38;99544.00;5073762;28;19924;-71
2021/04/01 10:07:24;;;;;;;;;;;;;;;21.80;50.40;99543.25;5073887;28;19931;-70
2021/04/01 10:09:52;;;;;;;;;;;;;;;22.05;50.36;99542.94;5074085;28;19939;-71
2021/04/01 10:12:21;;;;;;;;;;;;;;;22.19;49.77;99536.13;5074357;28;20328;-71
2021/04/01 10:14:50;;;;;;;;;;;;;;;22.12;47.37;99529.56;5073689;28;19931;-70
2021/04/01 10:17:20;;;;;;;;;;;;;;;22.09;47.78;99529.72;5073661;28;19935;-70
2021/04/01 10:19:49;;;;;;;;;;;;;;;22.21;47.78;99521.28;5073614;28;20375;-70
2021/04/01 10:22:21;;;;;;;;;;;;;;;22.23;47.84;99527.25;5073919;28;20383;-70
2021/04/01 10:25:07;;;;;;;;;;;;;;;22.21;47.49;99523.03;5073424;28;19932;-70
2021/04/01 10:27:43;;;;;;;;;;;;;;;22.24;46.83;99515.94;5076914;28;19925;-70
2021/04/01 10:30:11;;;;;;;;;;;;;;;22.32;47.15;99520.72;5077651;28;19959;-70
2021/04/01 10:32:41;;;;;;;;;;;;;;;22.36;47.22;99512.69;5076596;28;19959;-70
2021/04/01 10:35:10;;;;;;;;;;;;;;;22.31;47.04;99508.66;5077425;28;19951;-71
2021/04/01 10:37:46;;;;;;;;;;;;;;;22.27;46.83;99501.91;5077408;28;20340;-70
2021/04/01 10:40:15;;;;;;;;;;;;;;;22.19;46.54;99489.34;5077495;28;19946;-70
2021/04/01 10:42:46;;;;;;;;;;;;;;;22.27;47.01;99487.16;5077420;28;19971;-70
2021/04/01 10:45:20;;;;;;;;;;;;;;;22.28;47.02;99486.25;5077312;28;20286;-70
2021/04/01 10:47:57;;;;;;;;;;;;;;;22.37;46.70;99483.16;5077303;28;19966;-71
2021/04/01 10:50:31;;;;;;;;;;;;;;;22.42;47.33;99475.13;5077196;28;19925;-70
2021/04/01 10:52:59;;;;;;;;;;;;;;;22.52;47.30;99461.56;5077423;28;19928;-71
2021/04/01 10:55:28;;;;;;;;;;;;;;;22.61;47.42;99458.50;5077123;28;19931;-70
2021/04/01 10:58:07;;;;;;;;;;;;;;;22.89;47.09;99460.44;5076916;28;20329;-70
2021/04/01 11:00:35;;;;;;;;;;;;;;;23.08;45.25;99455.09;5075925;28;19982;-71
2021/04/01 11:03:04;;;;;;;;;;;;;;;22.96;44.53;99455.78;5075693;28;19932;-72
2021/04/01 11:05:32;;;;;;;;;;;;;;;23.03;44.62;99451.91;5076917;28;19966;-71
2021/04/01 11:08:05;;;;;;;;;;;;;;;23.17;43.83;99450.22;5076864;28;19956;-71
2021/04/01 11:10:33;;;;;;;;;;;;;;;23.20;43.92;99444.81;5076800;28;19924;-70
2021/04/01 11:13:02;;;;;;;;;;;;;;;23.29;43.59;99443.47;5076820;28;19925;-72
2021/04/01 11:15:32;;;;;;;;;;;;;;;23.37;43.78;99436.09;5076987;28;20019;-71
2021/04/01 11:18:01;;;;;;;;;;;;;;;23.42;43.52;99433.25;5076577;28;20263;-72
2021/04/01 11:20:30;;;;;;;;;;;;;;;23.53;43.99;99436.91;5076667;28;19925;-72
2021/04/01 11:23:02;;;;;;;;;;;;;;;23.69;43.70;99427.25;5076616;28;19947;-72
2021/04/01 11:25:29;;;;;;;;;;;;;;;23.86;43.44;99429.72;5076588;28;20267;-72
2021/04/01 11:27:57;;;;;;;;;;;;;;;23.91;43.10;99427.69;5076343;28;19928;-72
2021/04/01 11:30:40;;;;;;;;;;;;;;;23.87;43.41;99420.16;5075276;28;19935;-72
2021/04/01 11:33:09;;;;;;;;;;;;;;;23.92;43.46;99421.53;5076525;28;19925;-72
2021/04/01 11:35:43;;;;;;;;;;;;;;;23.98;43.88;99418.56;5076431;28;19962;-72
2021/04/01 11:38:17;;;;;;;;;;;;;;;24.00;43.54;99411.50;5075297;28;19928;-72
2021/04/01 11:40:53;;;;;;;;;;;;;;;23.99;43.18;99403.78;5076261;28;20298;-71
2021/04/01 11:43:24;;;;;;;;;;;;;;;23.85;42.75;99407.19;5075046;28;19924;-71
2021/04/01 11:45:52;;;;;;;;;;;;;;;23.87;43.97;99399.28;5076538;28;20420;-71
2021/04/01 11:48:26;;;;;;;;;;;;;;;23.92;44.27;99398.06;5076132;28;19924;-71
2021/04/01 11:50:54;;;;;;;;;;;;;;;23.99;44.35;99394.16;5076143;28;19924;-71
2021/04/01 11:53:22;;;;;;;;;;;;;;;24.15;44.16;99390.66;5076216;28;19931;-71
2021/04/01 11:55:52;;;;;;;;;;;;;;;24.23;43.65;99394.50;5075620;28;19924;-71
2021/04/01 11:58:20;;;;;;;;;;;;;;;24.26;44.28;99385.66;5075915;28;19953;-72
2021/04/01 12:00:49;;;;;;;;;;;;;;;24.34;44.28;99378.16;5075890;28;19928;-72
2021/04/01 12:03:21;;;;;;;;;;;;;;;24.38;43.62;99377.03;5075871;28;19932;-71
2021/04/01 12:05:51;;;;;;;;;;;;;;;24.45;43.39;99380.97;5075962;28;19959;-71
2021/04/01 12:08:20;;;;;;;;;;;;;;;24.38;43.12;99369.22;5075768;28;20011;-72
2021/04/01 12:10:55;;;;;;;;;;;;;;;24.40;43.16;99354.31;5075711;28;19928;-72
2021/04/01 12:13:23;;;;;;;;;;;;;;;24.55;43.47;99361.16;5075648;28;19925;-71
2021/04/01 12:15:52;;;;;;;;;;;;;;;24.70;43.51;99359.38;5075636;28;19932;-71
2021/04/01 12:18:20;;;;;;;;;;;;;;;24.71;42.88;99355.84;5075361;28;19971;-72
2021/04/01 12:20:49;;;;;;;;;;;;;;;24.57;41.73;99348.88;5075484;28;20383;-71
2021/04/01 12:23:20;;;;;;;;;;;;;;;24.64;41.93;99340.53;5075436;28;19925;-72
2021/04/01 12:25:48;;;;;;;;;;;;;;;24.72;41.45;99340.06;5075219;28;20044;-71
2021/04/01 12:28:19;;;;;;;;;;;;;;;24.87;41.44;99335.66;5075702;28;20303;-72
2021/04/01 12:30:48;;;;;;;;;;;;;;;25.08;41.79;99335.13;5075798;28;19924;-72
2021/04/01 12:33:20;;;;;;;;;;;;;;;25.26;41.85;99323.47;5075550;28;19924;-71
2021/04/01 12:35:51;;;;;;;;;;;;;;;25.39;41.34;99323.47;5075200;28;19925;-71
2021/04/01 12:38:28;;;;;;;;;;;;;;;25.34;40.56;99320.31;5075237;28;20301;-72
2021/04/01 12:40:58;;;;;;;;;;;;;;;25.28;40.35;99311.13;5075286;28;19928;-71
2021/04/01 12:43:29;;;;;;;;;;;;;;;25.39;40.32;99313.00;5074986;28;19924;-72
2021/04/01 12:45:57;;;;;;;;;;;;;;;25.48;40.20;99311.59;5075103;28;19932;-71
2021/04/01 12:48:25;;;;;;;;;;;;;;;25.47;40.15;99310.75;5074700;28;20345;-71
2021/04/01 12:50:54;;;;;;;;;;;;;;;25.57;39.80;99310.97;5073870;28;20442;-71
2021/04/01 12:53:24;;;;;;;;;;;;;;;25.57;38.54;99298.75;5074854;28;19924;-71
2021/04/01 12:55:59;;;;;;;;;;;;;;;25.51;37.87;99290.47;5074858;28;19924;-71
2021/04/01 12:58:30;;;;;;;;;;;;;;;25.56;38.25;99283.16;5074825;28;19925;-71
2021/04/01 13:01:10;;;;;;;;;;;;;;;25.56;37.59;99277.91;5074788;28;19928;-72
2021/04/01 13:03:38;;;;;;;;;;;;;;;25.57;37.97;99269.16;5074866;28;19931;-71
2021/04/01 13:06:09;;;;;;;;;;;;;;;25.59;38.75;99267.25;5074613;28;19978;-71
2021/04/01 13:11:26;;;;;;;;;;;;;;;25.78;38.60;99262.44;5074431;28;20374;-71
2021/04/01 13:13:55;;;;;;;;;;;;;;;25.80;38.43;99256.16;5074471;28;19924;-71
2021/04/01 13:16:23;;;;;;;;;;;;;;;25.72;37.84;99262.88;5074789;28;20023;-71
2021/04/01 13:18:50;;;;;;;;;;;;;;;25.76;37.43;99265.16;5074615;28;19931;-72
2021/04/01 13:21:31;;;;;;;;;;;;;;;25.72;36.85;99257.66;5074317;28;19925;-72
2021/04/01 13:24:04;;;;;;;;;;;;;;;25.59;36.90;99256.81;5074428;28;19928;-71
2021/04/01 13:26:33;;;;;;;;;;;;;;;25.48;36.98;99243.66;5074095;28;19925;-72
2021/04/01 13:29:03;;;;;;;;;;;;;;;25.51;37.42;99243.41;5074907;28;19925;-72
2021/04/01 13:31:44;;;;;;;;;;;;;;;25.52;37.05;99235.47;5073457;28;20209;-72
2021/04/01 13:34:15;;;;;;;;;;;;;;;25.55;37.52;99234.44;5074227;28;19924;-71
2021/04/01 13:36:47;;;;;;;;;;;;;;;25.59;37.18;99228.03;5073128;28;20294;-71
2021/04/01 13:39:19;;;;;;;;;;;;;;;25.66;36.94;99221.44;5074237;28;19924;-72
2021/04/01 13:42:04;;;;;;;;;;;;;;;25.79;37.07;99214.44;5073284;28;20414;-72
2021/04/01 13:44:35;;;;;;;;;;;;;;;25.80;36.61;99223.94;5074124;28;19925;-72
2021/04/01 13:47:03;;;;;;;;;;;;;;;25.74;36.87;99219.16;5073169;28;20015;-72
2021/04/01 13:49:31;;;;;;;;;;;;;;;25.79;37.10;99214.44;5074060;28;19924;-71
2021/04/01 13:52:08;;;;;;;;;;;;;;;25.72;37.17;99213.19;5073948;28;19929;-71
2021/04/01 13:57:31;;;;;;;;;;;;;;;25.63;37.96;99204.19;5073611;28;19924;-72
2021/04/01 14:00:15;;;;;;;;;;;;;;;25.51;37.49;99201.59;5073693;28;19931;-71
2021/04/01 14:10:42;;;;;;;;;;;;;;;25.46;38.32;99182.81;5073907;28;19985;-72
2021/04/01 14:13:12;;;;;;;;;;;;;;;25.52;38.38;99166.69;5073981;28;19932;-72
2021/04/01 14:15:39;;;;;;;;;;;;;;;25.57;38.38;99164.59;5073837;28;19928;-72
2021/04/01 14:18:07;;;;;;;;;;;;;;;25.53;37.32;99168.38;5073645;28;19924;-72
2021/04/01 14:20:36;;;;;;;;;;;;;;;25.53;37.02;99163.13;5073730;28;19925;-71